Nutwood, Illinois
Current Conditions -  °F | °C
As of 12:41 PM on Sunday 23 Nov 2014 (Local Time) from KSET Reporting Station
Moderate Rain Moderate Rain  
Wind Chill: 54°   Ceiling: 900
Heat Index: 54°   Visibility: 2.5mi
Dew Point: 53°   Wind: 12mph
Humidity: 97%   Direction: 140°SE
Pressure: 29.47"   Gusts: NA
Location:  39.1226°N, 90.5371°W
Report Text: KSET 231841Z AUTO 14010KT 2 1/2SM RA BR OVC009 12/12 A2947 RMK AO2 CIG 007V013 P0008 T01220117
Loading
Personal Weather Stations






























Interactive Weather Map New forecast layout! Learn more

10-Day Weather Forecast

Advertisements
Track Severe Weather on mobile